Time;durP1;ratioP1;P1;durP2;ratioP2;P2;SDS_P1;SDS_P2;PMS_P1;PMS_P2;Temp;Humidity;BMP_temperature;BMP_pressure;BME280_temperature;BME280_humidity;BME280_pressure;Samples;Min_cycle;Max_cycle;Signal;HPM_P1;HPM_P2
2023/12/28 00:00:06;;;;;;;1.55;1.10;;;11.70;76.30;;;;;;5048745;28;20468;-63
2023/12/28 00:02:32;;;;;;;1.75;0.75;;;11.70;76.30;;;;;;5051930;28;20029;-63
2023/12/28 00:04:58;;;;;;;0.75;0.70;;;11.70;76.30;;;;;;5051715;28;20542;-63
2023/12/28 00:07:24;;;;;;;2.08;0.75;;;11.70;76.30;;;;;;5053526;28;20029;-63
2023/12/28 00:09:49;;;;;;;1.33;0.80;;;11.70;76.30;;;;;;5056945;28;20044;-63
2023/12/28 00:12:15;;;;;;;2.40;0.60;;;11.70;76.40;;;;;;5057262;28;20033;-63
2023/12/28 00:14:41;;;;;;;2.15;1.23;;;11.80;76.50;;;;;;5052266;28;20115;-64
2023/12/28 00:17:06;;;;;;;1.52;0.70;;;11.80;76.60;;;;;;5055488;28;20033;-63
2023/12/28 00:19:32;;;;;;;1.15;1.02;;;11.80;76.70;;;;;;5057424;28;20123;-64
2023/12/28 00:21:58;;;;;;;1.42;1.08;;;11.80;76.80;;;;;;5059220;28;20036;-64
2023/12/28 00:24:23;;;;;;;2.03;0.85;;;11.80;76.90;;;;;;5060708;28;20056;-63
2023/12/28 00:26:49;;;;;;;2.35;1.17;;;11.80;77.00;;;;;;5053814;28;20056;-63
2023/12/28 00:29:15;;;;;;;1.35;0.80;;;11.70;77.20;;;;;;5052965;28;20029;-63
2023/12/28 00:31:40;;;;;;;1.77;1.13;;;11.80;77.40;;;;;;5059689;28;20060;-63
2023/12/28 00:34:06;;;;;;;1.20;1.10;;;11.80;77.40;;;;;;5059750;28;20029;-64
2023/12/28 00:36:32;;;;;;;1.38;1.00;;;11.80;77.40;;;;;;5060571;28;20024;-63
2023/12/28 00:38:58;;;;;;;1.13;0.90;;;11.80;77.50;;;;;;5054256;28;20055;-63
2023/12/28 00:41:23;;;;;;;3.55;0.90;;;11.90;77.60;;;;;;5054219;28;20131;-63
2023/12/28 00:43:49;;;;;;;2.17;1.20;;;11.90;77.70;;;;;;5051140;28;20511;-68
2023/12/28 00:46:14;;;;;;;1.38;0.93;;;11.90;77.80;;;;;;5058609;28;20526;-63
2023/12/28 00:48:40;;;;;;;1.42;1.10;;;11.90;77.80;;;;;;5053292;28;20499;-63
2023/12/28 00:51:06;;;;;;;1.27;0.88;;;11.90;77.90;;;;;;5063044;28;20036;-64
2023/12/28 00:53:32;;;;;;;1.90;0.85;;;11.90;78.00;;;;;;5062783;28;20403;-63
2023/12/28 00:55:57;;;;;;;1.25;0.95;;;11.90;78.20;;;;;;5052595;28;20036;-64
2023/12/28 00:58:23;;;;;;;1.38;1.00;;;11.90;78.50;;;;;;5052171;28;20028;-64
2023/12/28 01:00:49;;;;;;;1.58;1.08;;;11.90;79.10;;;;;;5052159;28;20045;-63
2023/12/28 01:03:14;;;;;;;1.27;0.88;;;11.90;78.60;;;;;;5055223;28;20863;-63
2023/12/28 01:05:40;;;;;;;1.13;0.93;;;11.90;78.60;;;;;;5055759;28;20037;-63
2023/12/28 01:08:06;;;;;;;0.80;0.80;;;11.90;78.70;;;;;;5052365;28;20029;-64
2023/12/28 01:10:31;;;;;;;2.20;1.05;;;11.90;78.70;;;;;;5054403;28;20024;-63
2023/12/28 01:12:57;;;;;;;1.30;0.80;;;11.90;78.70;;;;;;5048108;28;20028;-64
2023/12/28 01:15:23;;;;;;;4.13;1.50;;;12.00;78.80;;;;;;5040951;28;20040;-63
2023/12/28 01:17:48;;;;;;;2.38;1.13;;;12.00;78.80;;;;;;5054981;28;20035;-64
2023/12/28 01:20:14;;;;;;;0.95;0.80;;;12.00;78.80;;;;;;5052687;28;20164;-63
2023/12/28 01:22:40;;;;;;;3.92;1.20;;;12.00;78.70;;;;;;5058048;28;20111;-63
2023/12/28 01:25:06;;;;;;;1.30;0.90;;;12.00;78.70;;;;;;5055682;28;20028;-64
2023/12/28 01:27:32;;;;;;;1.23;0.82;;;12.00;78.80;;;;;;5059596;28;20165;-64
2023/12/28 01:29:57;;;;;;;1.40;1.08;;;12.00;78.90;;;;;;5055139;28;20037;-67
2023/12/28 01:32:23;;;;;;;0.60;0.60;;;12.00;78.90;;;;;;5056534;28;20059;-64
2023/12/28 01:34:48;;;;;;;2.67;0.93;;;12.00;79.00;;;;;;5053793;28;20086;-63
2023/12/28 01:37:14;;;;;;;1.52;1.10;;;12.00;79.10;;;;;;5050688;28;20399;-63
2023/12/28 01:39:40;;;;;;;1.02;0.80;;;12.00;79.30;;;;;;5054017;28;20043;-64
2023/12/28 01:42:06;;;;;;;1.85;0.60;;;11.90;79.30;;;;;;5034955;28;20050;-64
2023/12/28 01:44:32;;;;;;;1.20;1.10;;;11.90;79.50;;;;;;5053960;28;20567;-64
2023/12/28 01:46:58;;;;;;;1.17;0.80;;;11.90;79.70;;;;;;5054963;28;20033;-63
2023/12/28 01:49:24;;;;;;;1.25;1.15;;;11.80;80.00;;;;;;5048642;28;20063;-63
2023/12/28 01:51:50;;;;;;;2.38;1.05;;;11.80;80.10;;;;;;5054589;28;20123;-63
2023/12/28 01:54:17;;;;;;;1.83;0.85;;;11.80;80.30;;;;;;5049719;28;20039;-63
2023/12/28 01:56:44;;;;;;;1.33;1.00;;;11.80;80.30;;;;;;5052358;28;20036;-64
2023/12/28 01:59:11;;;;;;;1.38;0.80;;;11.80;80.30;;;;;;5052807;28;20029;-63
2023/12/28 02:01:36;;;;;;;1.08;0.88;;;11.90;80.40;;;;;;5053665;28;20033;-63
2023/12/28 02:04:02;;;;;;;1.90;1.30;;;11.90;80.50;;;;;;5047940;28;20049;-63
2023/12/28 02:06:28;;;;;;;1.27;0.90;;;11.90;80.50;;;;;;5052579;28;20029;-63
2023/12/28 02:08:54;;;;;;;1.95;1.13;;;11.90;80.50;;;;;;5053453;28;20056;-64
2023/12/28 02:11:20;;;;;;;0.70;0.60;;;11.90;80.60;;;;;;5054838;28;20040;-64
2023/12/28 02:13:46;;;;;;;0.80;0.77;;;11.90;80.70;;;;;;5049469;28;20067;-64
2023/12/28 02:16:35;;;;;;;2.53;1.02;;;11.90;80.70;;;;;;5054546;28;20017;-64
2023/12/28 02:19:25;;;;;;;2.40;0.93;;;11.90;80.90;;;;;;5059913;28;20443;-64
2023/12/28 02:21:51;;;;;;;1.48;1.20;;;11.80;81.00;;;;;;5054792;28;20071;-64
2023/12/28 02:24:17;;;;;;;1.38;1.13;;;11.80;81.20;;;;;;5049487;28;20074;-64
2023/12/28 02:26:42;;;;;;;1.90;0.90;;;11.80;81.20;;;;;;5050696;28;20492;-64
2023/12/28 02:29:08;;;;;;;1.60;1.30;;;11.80;81.30;;;;;;5057665;28;20035;-64
2023/12/28 02:31:50;;;;;;;3.35;1.05;;;11.80;81.40;;;;;;5052818;28;20395;-64
2023/12/28 02:34:22;;;;;;;1.65;1.10;;;11.80;81.40;;;;;;5046607;28;20021;-64
2023/12/28 02:36:49;;;;;;;0.82;0.70;;;11.80;81.50;;;;;;5058011;28;20357;-64
2023/12/28 02:39:17;;;;;;;1.10;0.95;;;11.70;81.60;;;;;;5057343;28;20032;-64
2023/12/28 02:41:46;;;;;;;0.90;0.88;;;11.70;81.70;;;;;;5036445;28;20500;-64
2023/12/28 02:44:13;;;;;;;1.95;0.93;;;11.70;81.80;;;;;;5049417;28;20021;-64
2023/12/28 02:46:38;;;;;;;1.70;1.02;;;11.70;81.90;;;;;;5052950;28;20033;-64
2023/12/28 02:49:04;;;;;;;5.53;1.67;;;11.70;81.90;;;;;;5045229;28;20487;-64
2023/12/28 02:51:30;;;;;;;1.48;1.30;;;11.70;82.10;;;;;;5056494;28;20025;-64
2023/12/28 02:53:55;;;;;;;1.17;1.08;;;11.70;82.20;;;;;;5053544;28;20038;-64
2023/12/28 02:56:21;;;;;;;1.95;1.13;;;11.70;82.20;;;;;;5053474;28;20083;-64
2023/12/28 02:58:47;;;;;;;2.03;1.20;;;11.70;82.10;;;;;;5061615;28;20028;-64
2023/12/28 03:01:12;;;;;;;1.13;1.00;;;11.70;82.20;;;;;;5055948;28;20048;-64
2023/12/28 03:03:38;;;;;;;1.13;0.93;;;11.70;82.30;;;;;;5051336;28;20053;-64
2023/12/28 03:06:04;;;;;;;4.05;1.08;;;11.70;82.40;;;;;;5052875;28;20036;-64
2023/12/28 03:08:29;;;;;;;1.42;1.10;;;11.70;82.40;;;;;;5043206;28;20029;-64
2023/12/28 03:10:55;;;;;;;1.92;1.45;;;11.70;82.40;;;;;;5043052;28;20385;-64
2023/12/28 03:13:21;;;;;;;2.13;1.23;;;11.70;82.40;;;;;;5051906;28;20119;-64
2023/12/28 03:15:47;;;;;;;1.88;1.15;;;11.70;82.40;;;;;;5039722;28;20353;-64
2023/12/28 03:18:13;;;;;;;2.08;1.25;;;11.70;82.40;;;;;;5044364;28;20040;-68
2023/12/28 03:20:38;;;;;;;2.63;1.40;;;11.70;82.30;;;;;;5050918;28;20038;-68
2023/12/28 03:23:04;;;;;;;0.77;0.75;;;11.80;82.30;;;;;;5053129;28;20044;-68
2023/12/28 03:25:30;;;;;;;1.25;1.02;;;11.80;82.20;;;;;;5055176;28;20021;-68
2023/12/28 03:27:55;;;;;;;2.80;1.98;;;11.80;82.10;;;;;;5053847;28;20404;-67
2023/12/28 03:30:21;;;;;;;0.88;0.70;;;11.80;82.10;;;;;;5053548;28;20601;-68
2023/12/28 03:32:47;;;;;;;4.90;1.30;;;11.80;82.10;;;;;;5055693;28;20067;-68
2023/12/28 03:35:12;;;;;;;2.92;1.00;;;11.80;82.00;;;;;;5053693;28;20025;-68
2023/12/28 03:37:38;;;;;;;1.88;0.90;;;11.70;82.00;;;;;;5048830;28;20396;-68
2023/12/28 03:40:05;;;;;;;2.35;0.85;;;11.80;82.10;;;;;;5054636;28;20037;-68
2023/12/28 03:42:30;;;;;;;2.22;0.80;;;11.80;82.00;;;;;;5050755;28;20518;-68
2023/12/28 03:44:56;;;;;;;1.27;0.90;;;11.80;81.90;;;;;;5033524;28;20029;-68
2023/12/28 03:47:24;;;;;;;2.08;1.20;;;11.90;81.90;;;;;;5056005;28;20506;-68
2023/12/28 03:49:49;;;;;;;3.72;0.90;;;11.90;81.70;;;;;;5046835;28;20461;-64
2023/12/28 03:52:15;;;;;;;2.40;1.20;;;11.90;81.70;;;;;;5055568;28;20038;-64
2023/12/28 03:54:41;;;;;;;2.80;1.17;;;11.90;81.50;;;;;;5058006;28;20021;-68
2023/12/28 03:57:06;;;;;;;5.05;1.30;;;12.00;81.50;;;;;;5055449;28;20056;-68
2023/12/28 03:59:32;;;;;;;1.70;1.48;;;12.00;81.30;;;;;;5052307;28;20034;-68
2023/12/28 04:01:58;;;;;;;2.13;0.75;;;12.00;81.20;;;;;;5050958;28;20032;-67
2023/12/28 04:04:23;;;;;;;2.42;0.82;;;12.00;81.10;;;;;;5047333;28;20029;-68
2023/12/28 04:06:49;;;;;;;5.78;1.33;;;12.00;81.10;;;;;;5051118;28;20068;-67
2023/12/28 04:09:15;;;;;;;4.10;1.00;;;12.10;81.10;;;;;;5054332;28;20025;-68
2023/12/28 04:11:40;;;;;;;1.70;0.77;;;12.10;81.00;;;;;;5050952;28;20400;-68
2023/12/28 04:14:06;;;;;;;1.50;1.10;;;12.00;80.80;;;;;;5052520;28;20179;-68
2023/12/28 04:16:32;;;;;;;5.30;1.27;;;12.10;80.90;;;;;;5051705;28;20036;-68
2023/12/28 04:18:57;;;;;;;3.38;0.80;;;12.10;80.70;;;;;;5053840;28;20069;-68
2023/12/28 04:21:23;;;;;;;5.85;0.95;;;12.10;80.60;;;;;;5046133;28;20044;-67
2023/12/28 04:23:49;;;;;;;3.10;1.27;;;12.10;80.50;;;;;;5051270;28;20025;-68
2023/12/28 04:26:18;;;;;;;1.90;1.10;;;12.10;80.50;;;;;;5037394;28;20044;-67
2023/12/28 04:28:44;;;;;;;1.10;0.68;;;12.10;80.40;;;;;;5050334;28;20033;-68
2023/12/28 04:31:10;;;;;;;2.50;1.17;;;12.20;80.40;;;;;;5047606;28;20018;-67
2023/12/28 04:33:35;;;;;;;1.83;1.05;;;12.20;80.40;;;;;;5049574;28;20025;-68
2023/12/28 04:36:05;;;;;;;1.55;1.05;;;12.20;80.10;;;;;;5054647;28;20056;-68
2023/12/28 04:38:31;;;;;;;0.90;0.85;;;12.20;79.70;;;;;;5031682;28;20033;-68
2023/12/28 04:40:58;;;;;;;2.58;0.85;;;12.20;79.60;;;;;;5056829;28;20066;-68
2023/12/28 04:43:23;;;;;;;1.40;0.93;;;12.20;79.60;;;;;;5055392;28;20480;-69
2023/12/28 04:45:50;;;;;;;3.95;0.90;;;12.30;79.50;;;;;;5060678;28;20036;-65
2023/12/28 04:48:20;;;;;;;1.33;0.70;;;12.30;79.50;;;;;;5055902;28;20033;-62
2023/12/28 04:50:47;;;;;;;3.65;1.40;;;12.30;79.40;;;;;;5053019;28;20036;-67
2023/12/28 04:53:13;;;;;;;3.35;0.75;;;12.30;79.40;;;;;;5056217;28;20571;-66
2023/12/28 04:55:39;;;;;;;5.20;1.27;;;12.30;79.30;;;;;;5039958;28;20119;-66
2023/12/28 04:58:04;;;;;;;1.17;0.88;;;12.30;79.40;;;;;;5052394;28;20448;-66
2023/12/28 05:00:30;;;;;;;3.42;0.88;;;12.30;79.30;;;;;;5053531;28;20029;-67
2023/12/28 05:02:56;;;;;;;4.65;1.13;;;12.30;79.20;;;;;;5053558;28;20029;-66
2023/12/28 05:05:21;;;;;;;3.95;0.70;;;12.30;79.10;;;;;;5059063;28;20032;-66
2023/12/28 05:07:47;;;;;;;2.15;0.98;;;12.30;78.90;;;;;;5059043;28;20028;-62
2023/12/28 05:10:13;;;;;;;3.10;1.58;;;12.40;78.90;;;;;;5054827;28;20033;-62
2023/12/28 05:12:39;;;;;;;1.83;0.95;;;12.40;78.70;;;;;;5051902;28;20037;-62
2023/12/28 05:15:05;;;;;;;7.55;1.10;;;12.40;78.70;;;;;;5057789;28;20422;-62
2023/12/28 05:17:30;;;;;;;3.22;0.80;;;12.40;78.60;;;;;;5059465;28;20107;-62
2023/12/28 05:19:56;;;;;;;3.47;1.77;;;12.40;78.50;;;;;;5058458;28;20179;-66
2023/12/28 05:22:22;;;;;;;3.63;1.13;;;12.40;78.50;;;;;;5055072;28;20539;-66
2023/12/28 05:24:48;;;;;;;7.38;1.45;;;12.40;78.30;;;;;;5054847;28;20060;-66
2023/12/28 05:27:13;;;;;;;2.47;0.80;;;12.40;78.20;;;;;;5052006;28;20102;-66
2023/12/28 05:29:39;;;;;;;11.73;2.00;;;12.40;78.00;;;;;;5059589;28;20470;-66
2023/12/28 05:32:05;;;;;;;2.35;0.88;;;12.40;77.90;;;;;;5054393;28;20076;-66
2023/12/28 05:34:31;;;;;;;7.07;0.90;;;12.40;78.00;;;;;;5054550;28;20566;-62
2023/12/28 05:36:57;;;;;;;1.27;0.68;;;12.40;78.40;;;;;;5051428;28;20028;-62
2023/12/28 05:39:22;;;;;;;2.25;0.73;;;12.40;77.80;;;;;;5054758;28;20407;-65
2023/12/28 05:41:50;;;;;;;2.28;1.45;;;12.50;77.90;;;;;;5054266;28;20032;-66
2023/12/28 05:44:16;;;;;;;2.55;1.25;;;12.50;77.40;;;;;;5062143;28;20383;-66
2023/12/28 05:46:42;;;;;;;0.73;0.68;;;12.50;77.40;;;;;;5053307;28;20024;-66
2023/12/28 05:49:07;;;;;;;1.75;1.20;;;12.50;77.20;;;;;;5053262;28;20025;-66
2023/12/28 05:51:40;;;;;;;1.30;0.73;;;12.50;77.10;;;;;;5056622;28;20033;-66
2023/12/28 05:54:07;;;;;;;1.77;1.00;;;12.50;77.00;;;;;;5059169;28;20071;-66
2023/12/28 05:56:33;;;;;;;3.85;1.60;;;12.50;76.70;;;;;;5056578;28;20488;-66
2023/12/28 05:58:59;;;;;;;3.58;1.20;;;12.50;76.50;;;;;;5055623;28;20108;-66
2023/12/28 06:01:24;;;;;;;1.88;1.10;;;12.50;76.30;;;;;;5056201;28;20047;-66
2023/12/28 06:03:52;;;;;;;5.65;1.25;;;12.50;76.20;;;;;;5059955;28;20463;-66
2023/12/28 06:06:18;;;;;;;4.95;1.05;;;12.60;76.30;;;;;;5054418;28;20435;-62
2023/12/28 06:08:44;;;;;;;2.60;1.00;;;12.60;76.30;;;;;;5052137;28;20873;-62
2023/12/28 06:11:10;;;;;;;3.10;1.42;;;12.60;76.10;;;;;;5056635;28;20039;-62
2023/12/28 06:13:36;;;;;;;5.60;1.00;;;12.60;76.00;;;;;;5061785;28;20024;-62
2023/12/28 06:16:01;;;;;;;3.20;1.27;;;12.60;75.90;;;;;;5052718;28;20025;-62
2023/12/28 06:18:27;;;;;;;6.53;1.40;;;12.60;75.80;;;;;;5060572;28;20037;-62
2023/12/28 06:20:52;;;;;;;4.60;1.17;;;12.60;76.50;;;;;;5055050;28;20063;-62
2023/12/28 06:23:18;;;;;;;3.17;0.90;;;12.70;76.00;;;;;;5055237;28;20037;-62
2023/12/28 06:25:44;;;;;;;1.83;0.90;;;12.70;76.00;;;;;;5051290;28;20035;-63
2023/12/28 06:28:10;;;;;;;3.05;1.38;;;12.70;75.70;;;;;;5052551;28;20072;-62
2023/12/28 06:30:35;;;;;;;5.25;1.23;;;12.70;75.80;;;;;;5055361;28;20021;-62
2023/12/28 06:33:01;;;;;;;5.75;1.45;;;12.60;75.80;;;;;;5048947;28;20393;-62
2023/12/28 06:35:27;;;;;;;6.35;1.30;;;12.70;76.00;;;;;;5051851;28;20029;-62
2023/12/28 06:37:52;;;;;;;4.22;0.98;;;12.70;76.00;;;;;;5054206;28;20028;-62
2023/12/28 06:40:18;;;;;;;2.38;1.35;;;12.70;76.00;;;;;;5049266;28;20032;-62
2023/12/28 06:42:43;;;;;;;2.72;0.90;;;12.70;75.80;;;;;;5052474;28;20075;-62
2023/12/28 06:45:10;;;;;;;3.50;1.30;;;12.70;75.70;;;;;;5059214;28;20035;-62
2023/12/28 06:47:36;;;;;;;4.72;0.98;;;12.70;75.60;;;;;;5055684;28;20017;-62
2023/12/28 06:50:01;;;;;;;7.03;1.45;;;12.70;75.70;;;;;;5053542;28;20153;-62
2023/12/28 06:52:27;;;;;;;5.93;1.63;;;12.70;75.80;;;;;;5052297;28;20068;-62
2023/12/28 06:54:53;;;;;;;4.03;1.33;;;12.70;75.70;;;;;;5032873;28;20033;-62
2023/12/28 06:57:19;;;;;;;8.75;1.65;;;12.70;75.70;;;;;;5059089;28;20440;-62
2023/12/28 06:59:45;;;;;;;2.88;1.45;;;12.70;75.50;;;;;;5049164;28;20037;-62
2023/12/28 07:02:10;;;;;;;1.50;1.02;;;12.70;75.70;;;;;;5049823;28;20036;-62
2023/12/28 07:04:36;;;;;;;3.60;1.33;;;12.70;75.70;;;;;;5050344;28;20032;-62
2023/12/28 07:07:02;;;;;;;4.15;1.00;;;12.70;75.70;;;;;;5051970;28;20036;-62
2023/12/28 07:09:27;;;;;;;10.02;2.78;;;12.70;75.70;;;;;;5048086;28;20052;-62
2023/12/28 07:11:53;;;;;;;4.43;0.90;;;12.70;75.50;;;;;;5051418;28;20062;-62
2023/12/28 07:14:19;;;;;;;5.88;1.60;;;12.70;75.40;;;;;;5047231;28;20021;-62
2023/12/28 07:16:45;;;;;;;5.78;1.58;;;12.70;75.40;;;;;;5049634;28;20418;-66
2023/12/28 07:19:11;;;;;;;3.92;1.13;;;12.70;75.40;;;;;;5051865;28;20029;-67
2023/12/28 07:21:36;;;;;;;5.75;1.30;;;12.70;75.40;;;;;;5061156;28;20040;-67
2023/12/28 07:24:02;;;;;;;9.57;1.05;;;12.80;75.40;;;;;;5034810;28;20036;-66
2023/12/28 07:26:28;;;;;;;6.30;1.38;;;12.80;75.40;;;;;;5057211;28;20906;-68
2023/12/28 07:28:54;;;;;;;3.47;1.70;;;12.80;75.40;;;;;;5049909;28;20044;-71
2023/12/28 07:31:25;;;;;;;3.20;1.85;;;12.80;75.20;;;;;;5054538;28;20029;-68
2023/12/28 07:33:50;;;;;;;8.15;1.52;;;12.80;75.40;;;;;;5050089;28;20414;-68
2023/12/28 07:36:16;;;;;;;4.63;0.95;;;12.70;75.20;;;;;;5039660;28;20179;-69
2023/12/28 07:38:42;;;;;;;3.22;0.90;;;12.70;75.20;;;;;;5049660;28;20028;-68
2023/12/28 07:41:11;;;;;;;2.45;0.90;;;12.80;75.30;;;;;;5050422;28;20033;-67
2023/12/28 07:43:37;;;;;;;6.35;1.25;;;12.80;75.10;;;;;;5046955;28;20025;-71
2023/12/28 07:46:03;;;;;;;1.88;1.33;;;12.70;75.10;;;;;;5054837;28;20036;-70
2023/12/28 07:48:30;;;;;;;4.10;1.55;;;12.70;75.10;;;;;;5050310;28;20055;-70
2023/12/28 07:51:03;;;;;;;7.07;1.30;;;12.80;75.10;;;;;;5050523;28;20025;-70
2023/12/28 07:53:29;;;;;;;3.30;1.02;;;12.80;75.10;;;;;;5050666;28;20036;-69
2023/12/28 07:55:55;;;;;;;3.67;2.08;;;12.80;75.00;;;;;;5049250;28;20032;-71
2023/12/28 07:58:21;;;;;;;5.45;1.85;;;12.80;75.00;;;;;;5055054;28;20017;-70
2023/12/28 08:00:47;;;;;;;2.78;1.00;;;12.80;75.00;;;;;;5056077;28;20044;-68
2023/12/28 08:03:15;;;;;;;5.57;1.90;;;12.80;75.10;;;;;;5046304;28;20029;-65
2023/12/28 08:05:41;;;;;;;5.10;1.67;;;12.80;74.90;;;;;;5043094;28;20084;-65
2023/12/28 08:08:07;;;;;;;1.55;1.00;;;12.70;75.00;;;;;;5053852;28;20568;-64
2023/12/28 08:10:33;;;;;;;3.20;0.80;;;12.80;74.90;;;;;;5042244;28;20021;-63
2023/12/28 08:12:59;;;;;;;10.73;2.08;;;12.80;74.90;;;;;;5045316;28;20506;-63
2023/12/28 08:15:24;;;;;;;4.43;1.50;;;12.80;74.90;;;;;;5051211;28;20557;-62
2023/12/28 08:17:50;;;;;;;4.22;1.45;;;12.70;75.40;;;;;;5053657;28;20059;-63
2023/12/28 08:20:16;;;;;;;3.28;1.13;;;12.80;74.70;;;;;;5054639;28;20436;-64
2023/12/28 08:22:42;;;;;;;9.00;1.38;;;12.80;74.70;;;;;;5048106;28;20103;-64
2023/12/28 08:25:08;;;;;;;7.20;1.27;;;12.80;74.80;;;;;;5047966;28;20483;-65
2023/12/28 08:27:35;;;;;;;6.43;1.80;;;12.80;74.60;;;;;;5058471;28;20029;-64
2023/12/28 08:30:00;;;;;;;3.88;0.80;;;12.80;74.70;;;;;;5050836;28;20041;-64
2023/12/28 08:32:27;;;;;;;9.32;1.80;;;12.90;74.70;;;;;;5054212;28;20032;-62
2023/12/28 08:34:53;;;;;;;2.65;0.95;;;12.90;74.60;;;;;;5056648;28;20530;-62
2023/12/28 08:37:18;;;;;;;4.45;1.05;;;12.90;74.70;;;;;;5051488;28;20036;-61
2023/12/28 08:39:44;;;;;;;3.25;1.17;;;12.90;74.70;;;;;;5053610;28;20044;-61
2023/12/28 08:42:10;;;;;;;6.18;0.98;;;12.90;74.70;;;;;;5052787;28;20033;-63
2023/12/28 08:44:36;;;;;;;5.13;1.00;;;12.90;74.60;;;;;;5050666;28;20028;-63
2023/12/28 08:47:02;;;;;;;7.53;1.25;;;12.90;74.60;;;;;;5053211;28;20104;-61
2023/12/28 08:49:29;;;;;;;5.18;1.65;;;12.90;74.70;;;;;;5041388;28;20809;-63
2023/12/28 08:51:54;;;;;;;4.00;2.00;;;12.90;74.60;;;;;;5050916;28;20115;-66
2023/12/28 08:54:20;;;;;;;5.22;1.10;;;12.90;74.50;;;;;;5055204;28;20151;-66
2023/12/28 08:56:46;;;;;;;4.28;1.75;;;12.90;74.50;;;;;;5049350;28;20116;-63
2023/12/28 08:59:12;;;;;;;4.93;1.45;;;12.90;74.40;;;;;;5051923;28;20029;-64
2023/12/28 09:01:37;;;;;;;2.55;0.95;;;12.90;74.40;;;;;;5050130;28;20052;-65
2023/12/28 09:04:03;;;;;;;2.67;1.10;;;12.90;74.30;;;;;;5048618;28;20090;-65
2023/12/28 09:06:29;;;;;;;3.22;1.10;;;12.90;74.60;;;;;;5052048;28;20124;-61
2023/12/28 09:08:54;;;;;;;4.40;1.27;;;13.00;74.60;;;;;;5043278;28;20030;-61
2023/12/28 09:11:20;;;;;;;3.75;1.75;;;12.90;74.50;;;;;;5054844;28;20037;-62
2023/12/28 09:13:46;;;;;;;7.05;1.67;;;12.90;74.40;;;;;;5045194;28;20391;-62
2023/12/28 09:16:14;;;;;;;2.33;0.82;;;12.90;74.50;;;;;;5047567;28;20033;-63
2023/12/28 09:18:41;;;;;;;5.68;1.42;;;12.90;74.60;;;;;;5049294;28;20453;-64
2023/12/28 09:21:08;;;;;;;4.93;1.30;;;12.90;74.40;;;;;;5043634;28;20440;-64
2023/12/28 09:23:35;;;;;;;8.70;1.42;;;12.90;74.60;;;;;;5040366;28;20119;-63
2023/12/28 09:26:03;;;;;;;5.00;1.00;;;12.90;74.60;;;;;;5035668;28;20084;-63
2023/12/28 09:28:29;;;;;;;6.75;2.08;;;12.90;74.40;;;;;;5041698;28;20354;-62
2023/12/28 09:30:54;;;;;;;13.73;2.45;;;12.90;74.40;;;;;;5033439;28;20089;-62
2023/12/28 09:33:20;;;;;;;4.50;1.70;;;12.90;74.40;;;;;;5040395;28;20098;-62
2023/12/28 09:35:47;;;;;;;3.53;1.35;;;12.90;74.30;;;;;;5054554;28;20457;-63
2023/12/28 09:38:13;;;;;;;5.57;1.52;;;13.00;74.40;;;;;;5041373;28;20042;-64
2023/12/28 09:40:42;;;;;;;7.68;1.40;;;13.10;74.20;;;;;;5042202;28;20037;-62
2023/12/28 09:43:26;;;;;;;3.03;1.88;;;13.10;74.00;;;;;;5043007;28;20412;-62
2023/12/28 09:45:54;;;;;;;4.50;2.00;;;13.10;73.80;;;;;;5033794;28;20031;-62
2023/12/28 09:48:21;;;;;;;3.50;1.23;;;13.10;73.90;;;;;;5026582;28;20034;-62
2023/12/28 09:50:54;;;;;;;11.45;1.85;;;13.00;73.70;;;;;;5032981;28;20092;-62
2023/12/28 09:53:24;;;;;;;8.55;2.20;;;13.10;73.80;;;;;;5040998;28;20120;-64
2023/12/28 09:55:51;;;;;;;7.53;1.80;;;13.10;73.90;;;;;;5042663;28;20136;-61
2023/12/28 09:58:19;;;;;;;6.30;1.98;;;13.10;73.60;;;;;;5039557;28;20492;-62
2023/12/28 10:00:46;;;;;;;2.63;1.13;;;13.10;73.50;;;;;;5040554;28;20145;-61
2023/12/28 10:03:16;;;;;;;4.95;1.10;;;13.10;73.60;;;;;;5042343;28;20032;-61
2023/12/28 10:05:42;;;;;;;0.90;0.73;;;13.20;73.60;;;;;;5044731;28;20465;-61
2023/12/28 10:08:08;;;;;;;5.80;1.00;;;13.20;73.30;;;;;;5034336;28;20507;-61
2023/12/28 10:10:34;;;;;;;5.45;1.08;;;13.20;73.50;;;;;;5045672;28;20029;-61
2023/12/28 10:13:00;;;;;;;2.50;1.52;;;13.30;73.40;;;;;;5043087;28;20040;-61
2023/12/28 10:15:26;;;;;;;11.10;1.77;;;13.20;73.10;;;;;;5046793;28;20082;-61
2023/12/28 10:17:52;;;;;;;4.22;1.60;;;13.20;73.30;;;;;;5050006;28;20446;-61
2023/12/28 10:20:18;;;;;;;4.50;1.55;;;13.20;73.30;;;;;;5040940;28;20033;-61
2023/12/28 10:22:44;;;;;;;5.75;1.27;;;13.20;73.30;;;;;;5039696;28;20114;-61
2023/12/28 10:25:11;;;;;;;4.65;1.88;;;13.20;73.50;;;;;;5047378;28;20029;-61
2023/12/28 10:27:40;;;;;;;3.63;1.23;;;13.20;73.30;;;;;;5047462;28;20582;-61
2023/12/28 10:30:07;;;;;;;4.43;1.17;;;13.20;73.30;;;;;;5046247;28;20025;-61
2023/12/28 10:32:32;;;;;;;3.83;0.80;;;13.30;73.10;;;;;;5046467;28;20037;-64
2023/12/28 10:34:58;;;;;;;5.15;1.83;;;13.40;72.80;;;;;;5049658;28;20029;-65
2023/12/28 10:37:26;;;;;;;4.63;2.22;;;13.50;72.50;;;;;;5049447;28;20033;-64
2023/12/28 10:39:54;;;;;;;5.20;1.08;;;13.70;72.20;;;;;;5056772;28;20479;-64
2023/12/28 10:42:44;;;;;;;11.25;2.25;;;13.90;71.80;;;;;;5049020;28;20017;-65
2023/12/28 10:45:10;;;;;;;5.80;2.15;;;14.00;71.10;;;;;;5050957;28;20155;-64
2023/12/28 10:47:40;;;;;;;7.78;1.75;;;14.00;70.70;;;;;;5045752;28;20029;-65
2023/12/28 10:50:08;;;;;;;9.60;1.45;;;14.10;70.20;;;;;;5047555;28;20017;-64
2023/12/28 10:52:36;;;;;;;6.57;1.65;;;14.10;70.30;;;;;;5046524;28;20033;-63
2023/12/28 10:55:21;;;;;;;13.63;1.30;;;14.00;70.30;;;;;;5055682;28;20134;-62
2023/12/28 10:58:03;;;;;;;6.18;1.55;;;14.00;70.60;;;;;;5048101;28;20365;-64
2023/12/28 11:00:33;;;;;;;4.07;1.02;;;13.90;70.40;;;;;;5053237;28;20025;-64
2023/12/28 11:03:03;;;;;;;6.07;1.75;;;13.90;70.60;;;;;;5048594;28;20033;-64
2023/12/28 11:05:30;;;;;;;7.60;3.08;;;13.80;70.60;;;;;;5047858;28;20034;-64
2023/12/28 11:07:58;;;;;;;2.97;1.42;;;13.80;70.60;;;;;;5041166;28;20044;-65
2023/12/28 11:10:24;;;;;;;4.90;1.50;;;13.80;70.90;;;;;;5046629;28;20032;-64
2023/12/28 11:12:54;;;;;;;5.18;1.65;;;13.80;71.00;;;;;;5049212;28;20028;-61
2023/12/28 11:15:20;;;;;;;8.10;2.50;;;13.90;70.40;;;;;;5047800;28;20032;-61
2023/12/28 11:17:45;;;;;;;7.55;2.22;;;13.80;70.10;;;;;;5049076;28;20531;-61
2023/12/28 11:20:13;;;;;;;13.27;2.58;;;13.80;70.30;;;;;;5045774;28;20036;-61
2023/12/28 11:22:40;;;;;;;6.90;1.60;;;13.80;70.00;;;;;;5049728;28;20116;-62
2023/12/28 11:25:06;;;;;;;2.50;1.50;;;13.80;70.00;;;;;;5051243;28;20028;-62
2023/12/28 11:27:36;;;;;;;4.00;1.88;;;13.80;70.20;;;;;;5046050;28;20044;-61
2023/12/28 11:30:05;;;;;;;2.90;1.90;;;13.80;69.90;;;;;;5043755;28;20017;-61
2023/12/28 11:32:35;;;;;;;4.20;1.55;;;13.80;70.10;;;;;;5050457;28;20036;-61
2023/12/28 11:35:01;;;;;;;9.90;2.53;;;13.70;70.20;;;;;;5049471;28;20470;-62
2023/12/28 11:37:29;;;;;;;8.38;2.55;;;13.70;70.20;;;;;;5045658;28;20030;-62
2023/12/28 11:39:56;;;;;;;4.93;1.48;;;13.60;70.50;;;;;;5052374;28;20029;-61
2023/12/28 11:42:22;;;;;;;4.68;0.98;;;13.60;70.70;;;;;;5048514;28;20029;-61
2023/12/28 11:44:56;;;;;;;3.25;1.10;;;13.60;70.70;;;;;;5054120;28;20033;-61
2023/12/28 11:47:24;;;;;;;4.47;1.35;;;13.60;70.60;;;;;;5039179;28;20116;-64
2023/12/28 11:49:54;;;;;;;4.10;1.27;;;13.60;70.90;;;;;;5045623;28;20013;-65
2023/12/28 11:52:31;;;;;;;3.65;2.00;;;13.70;70.70;;;;;;5035294;28;20124;-70
2023/12/28 11:54:59;;;;;;;3.03;1.00;;;13.70;70.80;;;;;;5046436;28;20043;-69
2023/12/28 11:57:25;;;;;;;4.97;1.27;;;13.60;70.90;;;;;;5047876;28;20441;-65
2023/12/28 11:59:57;;;;;;;3.53;1.23;;;13.60;71.00;;;;;;5047565;28;20502;-65
2023/12/28 12:02:26;;;;;;;5.72;1.42;;;13.60;71.10;;;;;;5045016;28;20215;-64
2023/12/28 12:04:54;;;;;;;5.55;1.50;;;13.50;71.10;;;;;;5054797;28;20518;-65
2023/12/28 12:07:19;;;;;;;5.63;1.95;;;13.50;71.40;;;;;;5049355;28;20040;-65
2023/12/28 12:09:45;;;;;;;7.55;1.77;;;13.40;71.50;;;;;;5051013;28;20025;-61
2023/12/28 12:12:11;;;;;;;6.00;1.90;;;13.40;71.60;;;;;;5046507;28;20035;-61
2023/12/28 12:14:37;;;;;;;3.80;1.63;;;13.40;71.80;;;;;;5044990;28;20492;-61
2023/12/28 12:17:04;;;;;;;4.60;1.83;;;13.40;71.80;;;;;;5053998;28;20033;-64
2023/12/28 12:19:30;;;;;;;5.78;1.48;;;13.40;71.50;;;;;;5047842;28;20507;-63
2023/12/28 12:21:56;;;;;;;2.67;1.83;;;13.40;71.70;;;;;;5045900;28;20025;-64
2023/12/28 12:24:23;;;;;;;4.95;2.00;;;13.40;71.70;;;;;;5045843;28;20032;-65
2023/12/28 12:26:51;;;;;;;4.78;2.00;;;13.30;71.70;;;;;;5056762;28;20025;-65
2023/12/28 12:29:17;;;;;;;3.50;0.80;;;13.30;71.70;;;;;;5051904;28;20500;-65
2023/12/28 12:31:44;;;;;;;12.30;1.15;;;13.40;71.80;;;;;;5052860;28;20059;-65
2023/12/28 12:34:16;;;;;;;5.50;1.85;;;13.40;71.60;;;;;;5049799;28;20036;-65
2023/12/28 12:36:42;;;;;;;2.85;1.42;;;13.40;71.70;;;;;;5046737;28;20074;-61
2023/12/28 12:39:11;;;;;;;5.53;1.38;;;13.40;71.50;;;;;;5043379;28;20563;-61
2023/12/28 12:41:37;;;;;;;6.75;2.03;;;13.40;71.70;;;;;;5050409;28;20506;-61